Time;durP1;ratioP1;P1;durP2;ratioP2;P2;SDS_P1;SDS_P2;PMS_P1;PMS_P2;Temp;Humidity;BMP_temperature;BMP_pressure;BME280_temperature;BME280_humidity;BME280_pressure;Samples;Min_cycle;Max_cycle;Signal;HPM_P1;HPM_P2
2023/12/31 00:00:41;;;;;;;26.10;6.07;;;;;;;;;;5056002;28;20203;-81
2023/12/31 00:03:29;;;;;;;22.90;5.57;;;;;;;;;;5054552;28;20684;-81
2023/12/31 00:05:56;;;;;;;25.73;6.50;;;;;;;;;;5055845;28;20215;-81
2023/12/31 00:08:23;;;;;;;16.57;5.70;;;;;;;;;;5055264;28;20199;-82
2023/12/31 00:10:50;;;;;;;31.27;7.07;;;;;;;;;;5055886;28;20192;-83
2023/12/31 00:13:17;;;;;;;31.30;8.27;;;;;;;;;;5055053;28;20226;-83
2023/12/31 00:15:44;;;;;;;27.67;7.63;;;;;;;;;;5056386;28;20671;-81
2023/12/31 00:18:11;;;;;;;17.13;6.83;;;;;;;;;;5054883;28;20204;-81
2023/12/31 00:20:39;;;;;;;20.10;5.80;;;;;;;;;;5054745;28;20291;-81
2023/12/31 00:23:06;;;;;;;51.77;10.47;;;;;;;;;;5054580;28;20227;-81
2023/12/31 00:25:33;;;;;;;29.73;8.50;;;;;;;;;;5054696;28;20208;-80
2023/12/31 00:28:01;;;;;;;49.70;12.47;;;;;;;;;;5054861;28;20223;-81
2023/12/31 00:30:28;;;;;;;17.03;6.17;;;;;;;;;;5054215;28;20196;-86
2023/12/31 00:32:55;;;;;;;51.60;12.10;;;;;;;;;;5056031;28;20207;-86
2023/12/31 00:35:23;;;;;;;34.20;8.43;;;;;;;;;;5055640;28;20196;-85
2023/12/31 00:37:50;;;;;;;39.27;9.73;;;;;;;;;;5054690;28;20200;-86
2023/12/31 00:40:17;;;;;;;23.30;9.17;;;;;;;;;;5054587;28;20196;-86
2023/12/31 00:42:44;;;;;;;44.20;10.53;;;;;;;;;;5054290;28;20232;-85
2023/12/31 00:45:12;;;;;;;29.30;6.87;;;;;;;;;;5054952;28;20265;-87
2023/12/31 00:47:39;;;;;;;29.43;8.13;;;;;;;;;;5037843;28;20200;-86
2023/12/31 00:50:07;;;;;;;27.93;10.20;;;;;;;;;;5054189;28;20201;-85
2023/12/31 00:52:34;;;;;;;46.33;12.17;;;;;;;;;;5054708;28;20192;-85
2023/12/31 00:55:01;;;;;;;47.60;11.00;;;;;;;;;;5055464;28;20275;-85
2023/12/31 00:57:29;;;;;;;20.97;7.20;;;;;;;;;;5054322;28;20200;-85
2023/12/31 00:59:57;;;;;;;29.17;7.63;;;;;;;;;;5055519;28;20212;-85
2023/12/31 01:02:25;;;;;;;32.67;11.70;;;;;;;;;;5055325;28;20211;-84
2023/12/31 01:04:51;;;;;;;50.37;12.10;;;;;;;;;;5055363;28;20192;-84
2023/12/31 01:07:19;;;;;;;44.43;11.30;;;;;;;;;;5055347;28;20601;-84
2023/12/31 01:09:46;;;;;;;41.23;10.27;;;;;;;;;;5055265;28;20261;-85
2023/12/31 01:12:13;;;;;;;17.87;10.07;;;;;;;;;;5054057;28;20207;-84
2023/12/31 01:14:41;;;;;;;36.73;10.10;;;;;;;;;;5055416;28;20246;-84
2023/12/31 01:17:11;;;;;;;52.23;11.93;;;;;;;;;;5053832;28;20204;-84
2023/12/31 01:19:38;;;;;;;40.10;9.57;;;;;;;;;;5053772;28;20541;-84
2023/12/31 01:22:05;;;;;;;63.10;13.60;;;;;;;;;;5054404;28;20211;-84
2023/12/31 01:24:32;;;;;;;27.03;7.67;;;;;;;;;;5053516;28;20314;-80
2023/12/31 01:27:00;;;;;;;29.27;8.47;;;;;;;;;;5053840;28;20192;-80
2023/12/31 01:29:27;;;;;;;46.30;11.40;;;;;;;;;;5053585;28;20274;-80
2023/12/31 01:31:54;;;;;;;42.23;10.23;;;;;;;;;;5053492;28;20212;-80
2023/12/31 01:34:21;;;;;;;45.93;16.23;;;;;;;;;;5054154;28;20563;-84
2023/12/31 01:36:48;;;;;;;30.43;8.33;;;;;;;;;;5055164;28;20253;-83
2023/12/31 01:39:15;;;;;;;36.80;8.80;;;;;;;;;;5036676;28;20192;-84
2023/12/31 01:41:42;;;;;;;21.90;6.90;;;;;;;;;;5053700;28;20203;-83
2023/12/31 01:44:09;;;;;;;19.73;8.23;;;;;;;;;;5054660;28;20220;-84
2023/12/31 01:46:36;;;;;;;29.87;8.07;;;;;;;;;;5053869;28;20200;-85
2023/12/31 01:49:04;;;;;;;44.77;12.47;;;;;;;;;;5055226;28;20199;-85
2023/12/31 01:51:32;;;;;;;27.17;7.03;;;;;;;;;;5037421;28;20214;-84
2023/12/31 01:54:04;;;;;;;34.47;10.20;;;;;;;;;;5054605;28;20207;-84
2023/12/31 01:56:33;;;;;;;14.50;5.53;;;;;;;;;;5037615;28;20180;-84
2023/12/31 01:59:01;;;;;;;25.23;7.77;;;;;;;;;;5053266;28;20204;-84
2023/12/31 02:01:30;;;;;;;32.30;8.67;;;;;;;;;;5053461;28;20204;-83
2023/12/31 02:03:57;;;;;;;21.53;7.47;;;;;;;;;;5053084;28;20225;-84
2023/12/31 02:06:26;;;;;;;18.73;6.57;;;;;;;;;;5053031;28;20215;-83
2023/12/31 02:08:53;;;;;;;24.93;8.20;;;;;;;;;;5053081;28;20204;-83
2023/12/31 02:11:21;;;;;;;26.83;7.10;;;;;;;;;;5053058;28;20196;-83
2023/12/31 02:13:47;;;;;;;23.00;7.80;;;;;;;;;;5052719;28;20925;-83
2023/12/31 02:16:15;;;;;;;24.63;8.33;;;;;;;;;;5053873;28;20265;-83
2023/12/31 02:18:42;;;;;;;17.17;6.13;;;;;;;;;;5053133;28;20778;-83
2023/12/31 02:21:12;;;;;;;16.30;6.80;;;;;;;;;;5052919;28;20196;-84
2023/12/31 02:23:40;;;;;;;26.77;7.10;;;;;;;;;;5036574;28;20276;-84
2023/12/31 02:26:09;;;;;;;19.07;6.93;;;;;;;;;;5052942;28;20230;-84
2023/12/31 02:28:36;;;;;;;17.43;7.10;;;;;;;;;;5052943;28;20203;-85
2023/12/31 02:31:04;;;;;;;25.50;7.77;;;;;;;;;;5053922;28;20200;-86
2023/12/31 02:33:34;;;;;;;36.97;9.97;;;;;;;;;;5052715;28;20192;-85
2023/12/31 02:36:02;;;;;;;28.87;9.10;;;;;;;;;;5036638;28;20203;-85
2023/12/31 02:38:29;;;;;;;17.90;8.00;;;;;;;;;;5020501;28;20199;-85
2023/12/31 02:40:56;;;;;;;33.93;9.73;;;;;;;;;;5036706;28;20188;-84
2023/12/31 02:43:23;;;;;;;33.03;8.93;;;;;;;;;;5053481;28;20615;-85
2023/12/31 02:45:51;;;;;;;21.60;7.33;;;;;;;;;;5053987;28;20192;-84
2023/12/31 02:48:18;;;;;;;21.93;8.47;;;;;;;;;;5052990;28;20213;-84
2023/12/31 02:50:45;;;;;;;16.73;7.07;;;;;;;;;;5051455;28;21051;-85
2023/12/31 02:53:12;;;;;;;20.43;7.17;;;;;;;;;;5053716;28;20196;-82
2023/12/31 02:55:40;;;;;;;17.23;6.67;;;;;;;;;;5052230;28;20208;-83
2023/12/31 02:58:07;;;;;;;18.03;7.00;;;;;;;;;;5068495;28;20253;-82
2023/12/31 03:00:34;;;;;;;18.50;7.13;;;;;;;;;;5051311;28;20188;-82
2023/12/31 03:03:01;;;;;;;26.10;8.00;;;;;;;;;;5051860;28;20279;-86
2023/12/31 03:05:29;;;;;;;26.57;7.73;;;;;;;;;;5053770;28;20249;-86
2023/12/31 03:07:56;;;;;;;27.97;9.77;;;;;;;;;;5053986;28;20191;-85
2023/12/31 03:10:23;;;;;;;16.03;8.13;;;;;;;;;;5052674;28;20202;-85
2023/12/31 03:12:50;;;;;;;32.23;9.93;;;;;;;;;;5054119;28;20334;-85
2023/12/31 03:15:19;;;;;;;35.93;9.27;;;;;;;;;;5053127;28;20195;-84
2023/12/31 03:17:46;;;;;;;43.20;11.73;;;;;;;;;;5035985;28;20208;-85
2023/12/31 03:20:13;;;;;;;39.10;11.30;;;;;;;;;;5053419;28;20196;-84
2023/12/31 03:22:40;;;;;;;28.33;10.37;;;;;;;;;;5052163;28;20215;-85
2023/12/31 03:25:10;;;;;;;36.17;10.90;;;;;;;;;;5053514;28;20227;-84
2023/12/31 03:27:37;;;;;;;43.33;11.17;;;;;;;;;;5053568;28;20231;-86
2023/12/31 03:30:06;;;;;;;33.03;9.47;;;;;;;;;;5051784;28;20207;-86
2023/12/31 03:32:34;;;;;;;39.37;13.97;;;;;;;;;;5052386;28;20184;-85
2023/12/31 03:35:02;;;;;;;47.67;12.67;;;;;;;;;;5053720;28;20233;-86
2023/12/31 03:37:30;;;;;;;26.30;7.40;;;;;;;;;;5019718;28;20666;-85
2023/12/31 03:39:57;;;;;;;23.37;8.03;;;;;;;;;;5036361;28;20196;-85
2023/12/31 03:42:24;;;;;;;25.93;14.53;;;;;;;;;;5052085;28;20228;-85
2023/12/31 03:44:51;;;;;;;30.67;9.37;;;;;;;;;;5051733;28;20231;-86
2023/12/31 03:47:19;;;;;;;74.87;16.57;;;;;;;;;;5052360;28;20215;-84
2023/12/31 03:49:46;;;;;;;53.70;11.93;;;;;;;;;;5035484;28;20684;-85
2023/12/31 03:52:13;;;;;;;38.67;11.00;;;;;;;;;;5052886;28;20188;-85
2023/12/31 03:54:43;;;;;;;39.60;14.43;;;;;;;;;;5019422;28;20593;-86
2023/12/31 03:57:10;;;;;;;58.40;12.90;;;;;;;;;;5053014;28;20196;-86
2023/12/31 03:59:38;;;;;;;34.63;10.03;;;;;;;;;;5053181;28;20189;-86
2023/12/31 04:02:05;;;;;;;24.20;8.03;;;;;;;;;;5054297;28;20192;-85
2023/12/31 04:04:33;;;;;;;45.83;16.70;;;;;;;;;;5057130;28;20219;-85
2023/12/31 04:07:00;;;;;;;48.97;11.23;;;;;;;;;;5056912;28;20200;-85
2023/12/31 04:09:28;;;;;;;55.47;14.13;;;;;;;;;;5056592;28;20199;-84
2023/12/31 04:11:55;;;;;;;34.63;11.03;;;;;;;;;;5038701;28;20710;-86
2023/12/31 04:14:22;;;;;;;108.67;35.50;;;;;;;;;;5056432;28;20188;-87
2023/12/31 04:16:49;;;;;;;53.87;14.77;;;;;;;;;;5038780;28;20208;-87
2023/12/31 04:19:16;;;;;;;41.90;11.97;;;;;;;;;;5055359;28;20188;-87
2023/12/31 04:21:43;;;;;;;42.83;10.83;;;;;;;;;;5056627;28;20196;-86
2023/12/31 04:24:10;;;;;;;56.67;14.60;;;;;;;;;;5055105;28;20680;-86
2023/12/31 04:26:42;;;;;;;86.00;27.63;;;;;;;;;;5055037;28;20288;-86
2023/12/31 04:29:10;;;;;;;52.27;13.80;;;;;;;;;;5055220;28;20177;-86
2023/12/31 04:31:42;;;;;;;28.23;10.13;;;;;;;;;;5055389;28;20196;-86
2023/12/31 04:34:12;;;;;;;35.53;10.60;;;;;;;;;;5039840;28;20185;-86
2023/12/31 04:36:43;;;;;;;34.07;15.10;;;;;;;;;;5056093;28;20192;-86
2023/12/31 04:39:11;;;;;;;38.17;11.20;;;;;;;;;;5055022;28;20593;-87
2023/12/31 04:41:38;;;;;;;43.27;10.83;;;;;;;;;;5038519;28;20196;-87
2023/12/31 04:44:06;;;;;;;37.20;11.70;;;;;;;;;;5056619;28;20238;-86
2023/12/31 04:46:33;;;;;;;35.33;11.37;;;;;;;;;;5038642;28;20643;-86
2023/12/31 04:49:01;;;;;;;31.00;10.33;;;;;;;;;;5054468;28;20656;-86
2023/12/31 04:51:29;;;;;;;60.83;12.23;;;;;;;;;;5034591;28;20844;-86
2023/12/31 04:53:57;;;;;;;44.50;11.67;;;;;;;;;;5034251;28;20197;-85
2023/12/31 04:56:25;;;;;;;37.10;10.30;;;;;;;;;;5035439;28;20677;-85
2023/12/31 04:58:55;;;;;;;28.83;11.30;;;;;;;;;;5018246;28;20220;-85
2023/12/31 05:01:23;;;;;;;27.70;9.50;;;;;;;;;;5034063;28;20660;-86
2023/12/31 05:03:50;;;;;;;38.83;9.93;;;;;;;;;;5035531;28;20217;-85
2023/12/31 05:06:18;;;;;;;25.13;8.17;;;;;;;;;;5035462;28;20196;-86
2023/12/31 05:08:45;;;;;;;90.50;24.73;;;;;;;;;;5034830;28;20189;-85
2023/12/31 05:11:13;;;;;;;25.17;9.03;;;;;;;;;;5050518;28;20611;-85
2023/12/31 05:13:41;;;;;;;24.47;8.17;;;;;;;;;;5034447;28;20251;-86
2023/12/31 05:16:13;;;;;;;33.60;9.47;;;;;;;;;;5033863;28;20196;-85
2023/12/31 05:18:43;;;;;;;30.87;9.23;;;;;;;;;;5033422;28;20251;-83
2023/12/31 05:21:12;;;;;;;34.60;12.07;;;;;;;;;;5035771;28;20208;-85
2023/12/31 05:23:39;;;;;;;31.10;9.67;;;;;;;;;;5035671;28;20247;-85
2023/12/31 05:26:06;;;;;;;38.57;10.63;;;;;;;;;;5035678;28;20205;-85
2023/12/31 05:28:33;;;;;;;56.43;14.13;;;;;;;;;;5033861;28;20200;-85
2023/12/31 05:31:00;;;;;;;24.67;10.53;;;;;;;;;;5017980;28;20216;-85
2023/12/31 05:33:27;;;;;;;31.90;10.93;;;;;;;;;;5035368;28;20197;-85
2023/12/31 05:35:55;;;;;;;41.27;11.20;;;;;;;;;;5035380;28;20196;-86
2023/12/31 05:38:22;;;;;;;49.13;13.90;;;;;;;;;;5035028;28;20193;-88
2023/12/31 05:40:49;;;;;;;98.33;28.50;;;;;;;;;;5035193;28;20205;-87
2023/12/31 05:43:16;;;;;;;45.20;14.07;;;;;;;;;;5035094;28;20228;-86
2023/12/31 05:45:43;;;;;;;35.63;11.83;;;;;;;;;;5034540;28;20242;-84
2023/12/31 05:48:12;;;;;;;27.67;9.67;;;;;;;;;;5034852;28;20193;-84
2023/12/31 05:50:39;;;;;;;25.00;9.00;;;;;;;;;;5033519;28;20203;-85
2023/12/31 05:53:06;;;;;;;21.43;8.70;;;;;;;;;;5034602;28;20200;-83
2023/12/31 05:55:33;;;;;;;19.00;8.97;;;;;;;;;;5033183;28;20212;-84
2023/12/31 05:58:01;;;;;;;18.10;8.27;;;;;;;;;;5034295;28;20209;-84
2023/12/31 06:00:28;;;;;;;23.40;9.17;;;;;;;;;;5034144;28;20196;-84
2023/12/31 06:02:55;;;;;;;22.83;8.73;;;;;;;;;;5034914;28;20695;-84
2023/12/31 06:05:22;;;;;;;21.53;7.27;;;;;;;;;;5034542;28;20236;-84
2023/12/31 06:07:49;;;;;;;22.20;7.87;;;;;;;;;;5034743;28;20208;-84
2023/12/31 06:10:17;;;;;;;21.60;8.57;;;;;;;;;;5032843;28;20782;-85
2023/12/31 06:12:44;;;;;;;25.27;8.30;;;;;;;;;;5017052;28;20192;-85
2023/12/31 06:15:11;;;;;;;32.23;11.30;;;;;;;;;;5034379;28;20201;-84
2023/12/31 06:17:39;;;;;;;15.63;8.43;;;;;;;;;;5034572;28;20200;-85
2023/12/31 06:20:07;;;;;;;16.87;7.93;;;;;;;;;;5034586;28;20200;-85
2023/12/31 06:22:35;;;;;;;25.03;8.30;;;;;;;;;;5033452;28;20537;-85
2023/12/31 06:25:02;;;;;;;67.03;20.80;;;;;;;;;;5034363;28;20209;-85
2023/12/31 06:27:29;;;;;;;50.03;18.00;;;;;;;;;;5034075;28;20711;-85
2023/12/31 06:29:56;;;;;;;38.23;11.57;;;;;;;;;;5032982;28;20688;-85
2023/12/31 06:32:24;;;;;;;29.60;7.93;;;;;;;;;;5033017;28;20212;-85
2023/12/31 06:34:51;;;;;;;30.10;10.40;;;;;;;;;;5034474;28;20209;-84
2023/12/31 06:37:18;;;;;;;28.00;11.03;;;;;;;;;;5034132;28;20193;-84
2023/12/31 06:39:46;;;;;;;28.87;10.10;;;;;;;;;;5034800;28;20196;-84
2023/12/31 06:42:13;;;;;;;67.23;15.53;;;;;;;;;;5032478;28;20228;-84
2023/12/31 06:44:41;;;;;;;46.27;12.43;;;;;;;;;;5045439;28;20208;-84
2023/12/31 06:47:08;;;;;;;49.73;13.93;;;;;;;;;;5053957;28;20189;-84
2023/12/31 06:49:35;;;;;;;36.27;10.93;;;;;;;;;;5053643;28;20304;-85
2023/12/31 06:52:04;;;;;;;35.80;11.27;;;;;;;;;;5053317;28;20192;-81
2023/12/31 06:54:31;;;;;;;38.43;11.03;;;;;;;;;;5053604;28;20319;-83
2023/12/31 06:56:58;;;;;;;23.20;9.13;;;;;;;;;;5053690;28;20195;-85
2023/12/31 06:59:25;;;;;;;22.30;8.80;;;;;;;;;;5053497;28;20212;-83
2023/12/31 07:01:52;;;;;;;36.60;9.60;;;;;;;;;;5051866;28;20617;-83
2023/12/31 07:04:19;;;;;;;35.63;11.20;;;;;;;;;;5050406;28;20224;-82
2023/12/31 07:06:47;;;;;;;63.13;16.97;;;;;;;;;;5049526;28;20196;-82
2023/12/31 07:09:14;;;;;;;31.33;11.93;;;;;;;;;;5041542;28;20220;-83
2023/12/31 07:11:41;;;;;;;44.10;12.23;;;;;;;;;;5039070;28;20223;-83
2023/12/31 07:14:08;;;;;;;49.03;14.30;;;;;;;;;;5039172;28;20191;-85
2023/12/31 07:16:36;;;;;;;30.10;14.03;;;;;;;;;;5035353;28;20211;-87
2023/12/31 07:19:02;;;;;;;27.13;12.33;;;;;;;;;;5034360;28;20263;-87
2023/12/31 07:21:30;;;;;;;40.97;14.60;;;;;;;;;;5032507;28;20649;-86
2023/12/31 07:23:58;;;;;;;52.30;24.60;;;;;;;;;;5046559;28;20192;-85
2023/12/31 07:26:26;;;;;;;43.90;17.17;;;;;;;;;;5053651;28;20196;-87
2023/12/31 07:28:54;;;;;;;66.87;23.47;;;;;;;;;;5043911;28;20197;-84
2023/12/31 07:31:40;;;;;;;51.83;22.40;;;;;;;;;;5041167;28;20185;-85
2023/12/31 07:34:07;;;;;;;61.97;23.03;;;;;;;;;;5039131;28;20318;-81
2023/12/31 07:36:35;;;;;;;54.13;21.60;;;;;;;;;;5039265;28;20204;-83
2023/12/31 07:39:03;;;;;;;50.60;20.97;;;;;;;;;;5052039;28;20215;-82
2023/12/31 07:41:31;;;;;;;55.37;22.73;;;;;;;;;;5055088;28;20223;-83
2023/12/31 07:43:59;;;;;;;61.00;22.10;;;;;;;;;;5046661;28;20315;-82
2023/12/31 07:46:28;;;;;;;58.60;24.23;;;;;;;;;;5037190;28;20220;-83
2023/12/31 07:48:56;;;;;;;60.53;25.23;;;;;;;;;;5044352;28;20200;-85
2023/12/31 07:51:24;;;;;;;53.67;26.27;;;;;;;;;;5037632;28;20661;-84
2023/12/31 07:53:51;;;;;;;41.17;17.37;;;;;;;;;;5058179;28;20204;-85
2023/12/31 07:56:19;;;;;;;43.07;16.00;;;;;;;;;;5056782;28;20652;-85
2023/12/31 07:58:46;;;;;;;35.50;14.23;;;;;;;;;;5054450;28;20219;-86
2023/12/31 08:01:13;;;;;;;36.33;17.57;;;;;;;;;;5057744;28;20223;-85
2023/12/31 08:03:40;;;;;;;50.37;18.17;;;;;;;;;;5055841;28;20220;-87
2023/12/31 08:06:08;;;;;;;33.50;15.17;;;;;;;;;;5041624;28;20711;-88
2023/12/31 08:08:35;;;;;;;31.83;14.03;;;;;;;;;;5036715;28;20216;-86
2023/12/31 08:11:02;;;;;;;39.77;14.03;;;;;;;;;;5036796;28;20237;-86
2023/12/31 08:13:30;;;;;;;38.83;14.70;;;;;;;;;;5036454;28;20227;-85
2023/12/31 08:15:59;;;;;;;44.27;14.33;;;;;;;;;;5054740;28;20232;-84
2023/12/31 08:18:25;;;;;;;40.37;14.07;;;;;;;;;;5056128;28;20212;-84
2023/12/31 08:20:53;;;;;;;34.00;14.10;;;;;;;;;;5055710;28;20236;-84
2023/12/31 08:23:20;;;;;;;29.60;13.60;;;;;;;;;;5055862;28;20694;-84
2023/12/31 08:25:47;;;;;;;34.93;13.57;;;;;;;;;;5053854;28;20244;-83
2023/12/31 08:28:14;;;;;;;32.43;13.17;;;;;;;;;;5052503;28;20569;-83
2023/12/31 08:30:42;;;;;;;43.00;14.80;;;;;;;;;;5054824;28;20252;-84
2023/12/31 08:33:09;;;;;;;51.47;16.83;;;;;;;;;;5056373;28;20303;-84
2023/12/31 08:35:37;;;;;;;49.70;16.53;;;;;;;;;;5055081;28;20239;-84
2023/12/31 08:38:04;;;;;;;37.80;13.37;;;;;;;;;;5055788;28;21252;-85
2023/12/31 08:40:31;;;;;;;33.43;13.80;;;;;;;;;;5054348;28;20235;-84
2023/12/31 08:42:58;;;;;;;42.63;14.83;;;;;;;;;;5053470;28;20243;-84
2023/12/31 08:45:26;;;;;;;55.07;21.00;;;;;;;;;;5053484;28;20251;-85
2023/12/31 08:47:53;;;;;;;38.07;14.80;;;;;;;;;;5055024;28;20303;-85
2023/12/31 08:50:21;;;;;;;30.70;13.33;;;;;;;;;;5053619;28;20240;-85
2023/12/31 08:52:48;;;;;;;39.87;14.97;;;;;;;;;;5054709;28;20216;-85
2023/12/31 08:55:16;;;;;;;35.63;18.83;;;;;;;;;;5054414;28;20239;-83
2023/12/31 08:57:49;;;;;;;32.80;14.93;;;;;;;;;;5053931;28;20224;-84
2023/12/31 09:00:17;;;;;;;35.67;14.30;;;;;;;;;;5053665;28;20620;-83
2023/12/31 09:02:45;;;;;;;34.07;13.83;;;;;;;;;;5053573;28;20231;-84
2023/12/31 09:05:12;;;;;;;46.13;18.93;;;;;;;;;;5053199;28;20736;-84
2023/12/31 09:07:40;;;;;;;36.00;14.10;;;;;;;;;;5053039;28;20220;-83
2023/12/31 09:10:08;;;;;;;36.37;14.70;;;;;;;;;;5052779;28;20243;-82
2023/12/31 09:12:35;;;;;;;33.80;15.13;;;;;;;;;;5052752;28;20216;-83
2023/12/31 09:15:03;;;;;;;35.77;13.47;;;;;;;;;;5052458;28;20243;-83
2023/12/31 09:17:30;;;;;;;35.47;15.83;;;;;;;;;;5053031;28;20596;-83
2023/12/31 09:20:05;;;;;;;34.80;13.73;;;;;;;;;;5052727;28;20675;-82
2023/12/31 09:22:32;;;;;;;35.93;15.27;;;;;;;;;;5053157;28;20220;-83
2023/12/31 09:25:00;;;;;;;32.13;14.27;;;;;;;;;;5042599;28;20290;-81
2023/12/31 09:27:27;;;;;;;40.10;14.77;;;;;;;;;;5046855;28;20338;-83
2023/12/31 09:29:54;;;;;;;40.37;15.70;;;;;;;;;;5054903;28;20231;-83
2023/12/31 09:32:21;;;;;;;47.77;15.90;;;;;;;;;;5051591;28;20306;-82
2023/12/31 09:34:48;;;;;;;36.87;14.23;;;;;;;;;;5052256;28;20703;-81
2023/12/31 09:37:19;;;;;;;64.63;19.10;;;;;;;;;;5052513;28;20235;-82
2023/12/31 09:39:47;;;;;;;82.77;25.93;;;;;;;;;;5048911;28;20224;-82
2023/12/31 09:42:20;;;;;;;30.13;12.97;;;;;;;;;;5037174;28;20232;-82
2023/12/31 09:44:49;;;;;;;33.80;14.67;;;;;;;;;;5039763;28;20231;-82
2023/12/31 09:47:16;;;;;;;59.47;17.73;;;;;;;;;;5042924;28;20256;-81
2023/12/31 09:49:44;;;;;;;41.03;16.10;;;;;;;;;;5052094;28;20246;-82
2023/12/31 09:52:11;;;;;;;81.60;22.83;;;;;;;;;;5051967;28;20877;-82
2023/12/31 09:54:40;;;;;;;64.13;19.37;;;;;;;;;;5050682;28;20228;-81
2023/12/31 09:57:08;;;;;;;54.07;18.13;;;;;;;;;;5050701;28;20243;-82
2023/12/31 09:59:41;;;;;;;39.83;16.77;;;;;;;;;;5050660;28;20227;-82
2023/12/31 10:02:13;;;;;;;53.03;20.40;;;;;;;;;;5050574;28;20228;-82
2023/12/31 10:04:40;;;;;;;29.90;13.37;;;;;;;;;;5034469;28;20224;-83
2023/12/31 10:07:07;;;;;;;33.30;13.33;;;;;;;;;;5051720;28;20240;-82
2023/12/31 10:09:35;;;;;;;23.93;12.43;;;;;;;;;;5052625;28;20902;-82
2023/12/31 10:12:02;;;;;;;22.83;13.03;;;;;;;;;;5051621;28;20239;-82
2023/12/31 10:14:30;;;;;;;37.00;15.07;;;;;;;;;;5052272;28;20239;-81
2023/12/31 10:16:56;;;;;;;38.80;13.17;;;;;;;;;;5051941;28;20243;-82
2023/12/31 10:19:24;;;;;;;41.57;16.13;;;;;;;;;;5051141;28;20630;-81
2023/12/31 10:21:51;;;;;;;30.87;13.73;;;;;;;;;;5051652;28;20687;-81
2023/12/31 10:24:29;;;;;;;44.40;18.33;;;;;;;;;;5051276;28;20227;-80
2023/12/31 10:26:56;;;;;;;32.43;14.17;;;;;;;;;;5051741;28;20239;-81
2023/12/31 10:29:24;;;;;;;55.00;18.73;;;;;;;;;;5052573;28;20224;-82
2023/12/31 10:31:52;;;;;;;37.93;14.43;;;;;;;;;;5050529;28;20252;-83
2023/12/31 10:34:19;;;;;;;62.80;19.13;;;;;;;;;;5052727;28;20228;-82
2023/12/31 10:36:47;;;;;;;49.70;17.47;;;;;;;;;;5051595;28;20317;-82
2023/12/31 10:39:36;;;;;;;122.70;29.40;;;;;;;;;;5051789;28;20250;-83
2023/12/31 10:42:05;;;;;;;42.13;17.77;;;;;;;;;;5050681;28;20224;-82
2023/12/31 10:44:34;;;;;;;45.57;18.63;;;;;;;;;;5051449;28;20231;-82
2023/12/31 10:47:05;;;;;;;56.57;18.27;;;;;;;;;;5050417;28;20730;-82
2023/12/31 10:49:34;;;;;;;49.50;17.57;;;;;;;;;;5051431;28;20319;-83
2023/12/31 10:52:03;;;;;;;44.93;15.03;;;;;;;;;;5051607;28;20228;-81
2023/12/31 10:54:42;;;;;;;27.83;13.40;;;;;;;;;;5049033;28;20235;-83
2023/12/31 10:57:09;;;;;;;42.20;15.57;;;;;;;;;;5050482;28;20224;-83
2023/12/31 10:59:40;;;;;;;30.90;12.70;;;;;;;;;;5051798;28;20246;-82
2023/12/31 11:02:20;;;;;;;46.90;17.87;;;;;;;;;;5050367;28;20230;-82
2023/12/31 11:04:48;;;;;;;47.70;15.43;;;;;;;;;;5051913;28;20236;-82
2023/12/31 11:07:17;;;;;;;34.30;14.23;;;;;;;;;;5051592;28;20676;-82
2023/12/31 11:09:46;;;;;;;104.13;27.13;;;;;;;;;;5051136;28;20584;-82
2023/12/31 11:12:14;;;;;;;67.93;18.97;;;;;;;;;;5052460;28;20223;-81
2023/12/31 11:14:46;;;;;;;26.33;12.23;;;;;;;;;;5054732;28;20631;-82
2023/12/31 11:17:38;;;;;;;35.57;13.83;;;;;;;;;;5054672;28;20437;-83
2023/12/31 11:20:09;;;;;;;33.03;15.40;;;;;;;;;;5048518;28;20227;-83
2023/12/31 11:22:53;;;;;;;27.53;12.00;;;;;;;;;;5035671;28;20220;-82
2023/12/31 11:25:21;;;;;;;73.77;22.37;;;;;;;;;;5046446;28;20232;-83
2023/12/31 11:27:50;;;;;;;94.87;32.43;;;;;;;;;;5053729;28;20220;-82
2023/12/31 11:30:51;;;;;;;57.37;21.50;;;;;;;;;;5055855;28;20220;-83
2023/12/31 11:33:22;;;;;;;34.60;14.30;;;;;;;;;;5042720;28;20228;-83
2023/12/31 11:35:53;;;;;;;53.63;16.57;;;;;;;;;;5044901;28;20232;-83
2023/12/31 11:38:20;;;;;;;102.63;29.23;;;;;;;;;;5035338;28;20319;-82
2023/12/31 11:40:53;;;;;;;272.77;60.83;;;;;;;;;;5035207;28;20225;-83
2023/12/31 11:43:21;;;;;;;115.70;37.60;;;;;;;;;;5034557;28;20259;-83
2023/12/31 11:45:49;;;;;;;42.63;16.67;;;;;;;;;;5053861;28;20223;-82
2023/12/31 11:48:19;;;;;;;118.70;43.70;;;;;;;;;;5054468;28;20236;-81
2023/12/31 11:50:51;;;;;;;213.00;73.07;;;;;;;;;;5033847;28;20219;-82
2023/12/31 11:53:21;;;;;;;214.43;54.20;;;;;;;;;;5033273;28;20237;-81
2023/12/31 11:55:53;;;;;;;256.83;56.87;;;;;;;;;;5034815;28;20225;-81
2023/12/31 11:58:23;;;;;;;205.57;66.97;;;;;;;;;;5034049;28;20220;-81
2023/12/31 12:00:50;;;;;;;161.30;48.97;;;;;;;;;;5033936;28;20236;-81
2023/12/31 12:03:20;;;;;;;279.50;71.30;;;;;;;;;;5033977;28;20321;-81
2023/12/31 12:05:51;;;;;;;220.10;52.73;;;;;;;;;;5033456;28;20751;-80
2023/12/31 12:08:21;;;;;;;158.87;43.83;;;;;;;;;;5042981;28;20225;-81
2023/12/31 12:10:49;;;;;;;192.83;60.10;;;;;;;;;;5051923;28;20232;-81
2023/12/31 12:13:16;;;;;;;188.20;46.03;;;;;;;;;;5053044;28;20323;-81
2023/12/31 12:15:43;;;;;;;163.97;43.33;;;;;;;;;;5053461;28;20256;-81
2023/12/31 12:18:26;;;;;;;92.77;26.37;;;;;;;;;;5052779;28;20228;-81
2023/12/31 12:20:55;;;;;;;78.83;31.83;;;;;;;;;;5053181;28;20228;-81
2023/12/31 12:23:23;;;;;;;156.23;38.00;;;;;;;;;;5052870;28;20313;-81
2023/12/31 12:25:51;;;;;;;142.93;37.03;;;;;;;;;;5052902;28;21043;-82
2023/12/31 12:28:19;;;;;;;91.90;24.60;;;;;;;;;;5052298;28;20232;-82
2023/12/31 12:30:48;;;;;;;149.60;59.73;;;;;;;;;;5053050;28;20952;-81
2023/12/31 12:33:15;;;;;;;163.00;48.00;;;;;;;;;;5052793;28;20236;-81
2023/12/31 12:35:44;;;;;;;161.33;39.67;;;;;;;;;;5054013;28;20714;-81
2023/12/31 12:38:12;;;;;;;273.33;60.30;;;;;;;;;;5053939;28;20208;-81
2023/12/31 12:40:41;;;;;;;380.57;88.80;;;;;;;;;;5053980;28;20722;-82
2023/12/31 12:43:12;;;;;;;160.03;47.07;;;;;;;;;;5052286;28;20328;-81
2023/12/31 12:45:39;;;;;;;156.33;38.23;;;;;;;;;;5046866;28;20208;-81
2023/12/31 12:48:07;;;;;;;175.13;42.37;;;;;;;;;;5053939;28;20228;-82
2023/12/31 12:50:35;;;;;;;106.87;27.00;;;;;;;;;;5053886;28;20211;-81
2023/12/31 12:53:02;;;;;;;135.97;44.13;;;;;;;;;;5053540;28;20217;-81
2023/12/31 12:55:30;;;;;;;179.40;44.33;;;;;;;;;;5054016;28;20204;-80
2023/12/31 12:57:57;;;;;;;199.47;44.63;;;;;;;;;;5053333;28;20212;-81
2023/12/31 13:00:25;;;;;;;122.47;29.80;;;;;;;;;;5053866;28;20329;-82
2023/12/31 13:02:52;;;;;;;143.30;53.00;;;;;;;;;;5036676;28;20237;-81
2023/12/31 13:05:19;;;;;;;81.50;24.13;;;;;;;;;;5050984;28;20224;-80
2023/12/31 13:07:47;;;;;;;117.17;26.63;;;;;;;;;;5052671;28;20246;-82
2023/12/31 13:10:14;;;;;;;81.60;22.03;;;;;;;;;;5052723;28;20278;-82
2023/12/31 13:12:41;;;;;;;212.77;55.47;;;;;;;;;;5052508;28;20240;-82
2023/12/31 13:15:09;;;;;;;138.13;43.83;;;;;;;;;;5053145;28;20220;-81
2023/12/31 13:17:36;;;;;;;156.13;37.20;;;;;;;;;;5040215;28;20313;-82
2023/12/31 13:20:05;;;;;;;148.80;36.23;;;;;;;;;;5052762;28;20216;-82
2023/12/31 13:22:32;;;;;;;178.67;40.73;;;;;;;;;;5052539;28;20302;-82
2023/12/31 13:25:00;;;;;;;108.80;35.97;;;;;;;;;;5052346;28;20286;-82
2023/12/31 13:27:29;;;;;;;86.63;26.97;;;;;;;;;;5052410;28;20591;-82
2023/12/31 13:29:56;;;;;;;181.23;39.10;;;;;;;;;;5052819;28;20235;-82
2023/12/31 13:32:23;;;;;;;257.13;46.97;;;;;;;;;;5051738;28;20286;-82
2023/12/31 13:34:50;;;;;;;322.50;77.03;;;;;;;;;;5050365;28;20895;-81
2023/12/31 13:37:17;;;;;;;245.90;76.27;;;;;;;;;;5052370;28;20227;-82
2023/12/31 13:39:45;;;;;;;257.13;54.57;;;;;;;;;;5051983;28;20228;-82
2023/12/31 13:42:11;;;;;;;172.87;38.10;;;;;;;;;;5052130;28;20255;-82
2023/12/31 13:44:39;;;;;;;279.70;66.97;;;;;;;;;;5052327;28;20232;-81
2023/12/31 13:47:06;;;;;;;419.73;157.57;;;;;;;;;;5051472;28;20635;-82
2023/12/31 13:49:33;;;;;;;336.37;115.17;;;;;;;;;;5052026;28;20247;-81
2023/12/31 13:52:02;;;;;;;248.83;64.07;;;;;;;;;;5052748;28;20681;-82
2023/12/31 13:54:29;;;;;;;261.57;61.17;;;;;;;;;;5052522;28;20224;-82
2023/12/31 13:56:56;;;;;;;347.37;109.10;;;;;;;;;;5054264;28;20227;-83
2023/12/31 13:59:23;;;;;;;257.53;77.93;;;;;;;;;;5055608;28;20236;-83
2023/12/31 14:01:50;;;;;;;245.03;55.93;;;;;;;;;;5052582;28;20262;-82
2023/12/31 14:04:17;;;;;;;232.20;53.30;;;;;;;;;;5052800;28;20220;-82
2023/12/31 14:06:45;;;;;;;192.70;42.50;;;;;;;;;;5050818;28;20286;-82
2023/12/31 14:09:13;;;;;;;237.00;75.80;;;;;;;;;;5041426;28;20231;-82
2023/12/31 14:11:41;;;;;;;222.43;53.73;;;;;;;;;;5041394;28;20216;-82
2023/12/31 14:14:10;;;;;;;214.47;45.10;;;;;;;;;;5040031;28;20227;-83
2023/12/31 14:16:41;;;;;;;192.13;42.37;;;;;;;;;;5045727;28;20332;-82
2023/12/31 14:19:08;;;;;;;232.67;78.57;;;;;;;;;;5040444;28;20235;-82
2023/12/31 14:21:52;;;;;;;288.37;73.97;;;;;;;;;;5046808;28;20224;-82
2023/12/31 14:24:19;;;;;;;212.87;50.93;;;;;;;;;;5031818;28;20236;-82